sensor_id;sensor_type;location;lat;lon;timestamp;temperature;humidity
2849;DHT22;59355;52.416;13.412;2022-07-03T00:00:44;16.40;99.90
2849;DHT22;59355;52.416;13.412;2022-07-03T00:03:10;16.40;99.90
2849;DHT22;59355;52.416;13.412;2022-07-03T00:05:36;16.40;99.90
2849;DHT22;59355;52.416;13.412;2022-07-03T00:08:05;16.30;99.90
2849;DHT22;59355;52.416;13.412;2022-07-03T00:10:31;16.30;99.90
2849;DHT22;59355;52.416;13.412;2022-07-03T00:12:58;16.30;99.90
2849;DHT22;59355;52.416;13.412;2022-07-03T00:15:24;16.20;99.90
2849;DHT22;59355;52.416;13.412;2022-07-03T00:17:50;16.20;99.90
2849;DHT22;59355;52.416;13.412;2022-07-03T00:20:16;16.20;99.90
2849;DHT22;59355;52.416;13.412;2022-07-03T00:22:43;16.20;99.90
2849;DHT22;59355;52.416;13.412;2022-07-03T00:25:12;16.20;99.90
2849;DHT22;59355;52.416;13.412;2022-07-03T00:27:39;16.20;99.90
2849;DHT22;59355;52.416;13.412;2022-07-03T00:30:06;16.10;99.90
2849;DHT22;59355;52.416;13.412;2022-07-03T00:32:38;16.10;99.90
2849;DHT22;59355;52.416;13.412;2022-07-03T00:35:07;16.10;99.90
2849;DHT22;59355;52.416;13.412;2022-07-03T00:37:34;16.00;99.90
2849;DHT22;59355;52.416;13.412;2022-07-03T00:40:00;16.00;99.90
2849;DHT22;59355;52.416;13.412;2022-07-03T00:42:27;16.00;99.90
2849;DHT22;59355;52.416;13.412;2022-07-03T00:44:55;15.90;99.90
2849;DHT22;59355;52.416;13.412;2022-07-03T00:47:23;15.90;99.90
2849;DHT22;59355;52.416;13.412;2022-07-03T00:49:52;15.90;99.90
2849;DHT22;59355;52.416;13.412;2022-07-03T00:52:20;15.90;99.90
2849;DHT22;59355;52.416;13.412;2022-07-03T00:54:58;15.80;99.90
2849;DHT22;59355;52.416;13.412;2022-07-03T00:57:26;15.80;99.90
2849;DHT22;59355;52.416;13.412;2022-07-03T00:59:52;15.80;99.90
2849;DHT22;59355;52.416;13.412;2022-07-03T01:05:12;15.70;99.90
2849;DHT22;59355;52.416;13.412;2022-07-03T01:07:56;15.70;99.90
2849;DHT22;59355;52.416;13.412;2022-07-03T01:10:45;15.70;99.90
2849;DHT22;59355;52.416;13.412;2022-07-03T01:16:13;15.60;99.90
2849;DHT22;59355;52.416;13.412;2022-07-03T01:18:49;15.60;99.90
2849;DHT22;59355;52.416;13.412;2022-07-03T01:21:30;15.60;99.90
2849;DHT22;59355;52.416;13.412;2022-07-03T01:24:31;15.60;99.90
2849;DHT22;59355;52.416;13.412;2022-07-03T01:27:04;15.50;99.90
2849;DHT22;59355;52.416;13.412;2022-07-03T01:32:14;15.40;99.90
2849;DHT22;59355;52.416;13.412;2022-07-03T01:34:43;15.40;99.90
2849;DHT22;59355;52.416;13.412;2022-07-03T01:37:14;15.40;99.90
2849;DHT22;59355;52.416;13.412;2022-07-03T01:39:43;15.40;99.90
2849;DHT22;59355;52.416;13.412;2022-07-03T01:42:11;15.40;99.90
2849;DHT22;59355;52.416;13.412;2022-07-03T01:44:39;15.40;99.90
2849;DHT22;59355;52.416;13.412;2022-07-03T01:47:06;15.50;99.90
2849;DHT22;59355;52.416;13.412;2022-07-03T01:49:32;15.50;99.90
2849;DHT22;59355;52.416;13.412;2022-07-03T01:52:01;15.50;99.90
2849;DHT22;59355;52.416;13.412;2022-07-03T01:54:28;15.50;99.90
2849;DHT22;59355;52.416;13.412;2022-07-03T01:56:55;15.50;99.90
2849;DHT22;59355;52.416;13.412;2022-07-03T01:59:22;15.50;99.90
2849;DHT22;59355;52.416;13.412;2022-07-03T02:01:58;15.50;99.90
2849;DHT22;59355;52.416;13.412;2022-07-03T02:04:33;15.50;99.90
2849;DHT22;59355;52.416;13.412;2022-07-03T02:07:08;15.50;99.90
2849;DHT22;59355;52.416;13.412;2022-07-03T02:09:44;15.50;99.90
2849;DHT22;59355;52.416;13.412;2022-07-03T02:12:18;15.40;99.90
2849;DHT22;59355;52.416;13.412;2022-07-03T02:15:05;15.30;99.90
2849;DHT22;59355;52.416;13.412;2022-07-03T02:17:46;15.30;99.90
2849;DHT22;59355;52.416;13.412;2022-07-03T02:20:16;15.30;99.90
2849;DHT22;59355;52.416;13.412;2022-07-03T02:22:51;15.30;99.90
2849;DHT22;59355;52.416;13.412;2022-07-03T02:25:22;15.20;99.90
2849;DHT22;59355;52.416;13.412;2022-07-03T02:27:56;15.20;99.90
2849;DHT22;59355;52.416;13.412;2022-07-03T02:30:24;15.20;99.90
2849;DHT22;59355;52.416;13.412;2022-07-03T02:32:52;15.20;99.90
2849;DHT22;59355;52.416;13.412;2022-07-03T02:35:22;15.10;99.90
2849;DHT22;59355;52.416;13.412;2022-07-03T02:38:13;15.00;99.90
2849;DHT22;59355;52.416;13.412;2022-07-03T02:41:02;15.00;99.90
2849;DHT22;59355;52.416;13.412;2022-07-03T02:44:01;15.00;99.90
2849;DHT22;59355;52.416;13.412;2022-07-03T02:46:38;14.90;99.90
2849;DHT22;59355;52.416;13.412;2022-07-03T02:49:27;14.90;99.90
2849;DHT22;59355;52.416;13.412;2022-07-03T02:52:33;14.90;99.90
2849;DHT22;59355;52.416;13.412;2022-07-03T02:57:40;14.80;99.90
2849;DHT22;59355;52.416;13.412;2022-07-03T03:00:11;14.80;99.90
2849;DHT22;59355;52.416;13.412;2022-07-03T03:05:22;14.90;99.90
2849;DHT22;59355;52.416;13.412;2022-07-03T03:08:22;14.90;99.90
2849;DHT22;59355;52.416;13.412;2022-07-03T03:10:59;15.00;99.90
2849;DHT22;59355;52.416;13.412;2022-07-03T03:13:30;14.90;99.90
2849;DHT22;59355;52.416;13.412;2022-07-03T03:16:10;15.00;99.90
2849;DHT22;59355;52.416;13.412;2022-07-03T03:18:41;15.00;99.90
2849;DHT22;59355;52.416;13.412;2022-07-03T03:21:12;15.10;99.90
2849;DHT22;59355;52.416;13.412;2022-07-03T03:23:49;15.10;99.90
2849;DHT22;59355;52.416;13.412;2022-07-03T03:26:18;15.10;99.90
2849;DHT22;59355;52.416;13.412;2022-07-03T03:28:45;15.10;99.90
2849;DHT22;59355;52.416;13.412;2022-07-03T03:31:11;15.20;99.90
2849;DHT22;59355;52.416;13.412;2022-07-03T03:33:40;15.20;99.90
2849;DHT22;59355;52.416;13.412;2022-07-03T03:36:11;15.30;99.90
2849;DHT22;59355;52.416;13.412;2022-07-03T03:38:38;15.30;99.90
2849;DHT22;59355;52.416;13.412;2022-07-03T03:41:06;15.40;99.90
2849;DHT22;59355;52.416;13.412;2022-07-03T03:43:32;15.50;99.90
2849;DHT22;59355;52.416;13.412;2022-07-03T03:45:59;15.50;99.90
2849;DHT22;59355;52.416;13.412;2022-07-03T03:48:32;15.70;99.90
2849;DHT22;59355;52.416;13.412;2022-07-03T03:50:59;16.20;99.90
2849;DHT22;59355;52.416;13.412;2022-07-03T03:53:26;16.30;99.90
2849;DHT22;59355;52.416;13.412;2022-07-03T03:56:00;16.20;99.90
2849;DHT22;59355;52.416;13.412;2022-07-03T03:58:31;16.20;99.90
2849;DHT22;59355;52.416;13.412;2022-07-03T04:00:59;16.20;99.90
2849;DHT22;59355;52.416;13.412;2022-07-03T04:03:26;16.30;99.90
2849;DHT22;59355;52.416;13.412;2022-07-03T04:05:53;16.30;99.90
2849;DHT22;59355;52.416;13.412;2022-07-03T04:08:20;16.40;99.90
2849;DHT22;59355;52.416;13.412;2022-07-03T04:10:47;16.40;99.90
2849;DHT22;59355;52.416;13.412;2022-07-03T04:13:14;16.40;99.90
2849;DHT22;59355;52.416;13.412;2022-07-03T04:15:41;16.50;99.90
2849;DHT22;59355;52.416;13.412;2022-07-03T04:18:07;16.50;99.90
2849;DHT22;59355;52.416;13.412;2022-07-03T04:20:33;16.50;99.90
2849;DHT22;59355;52.416;13.412;2022-07-03T04:23:00;16.60;99.90
2849;DHT22;59355;52.416;13.412;2022-07-03T04:25:26;16.70;99.90
2849;DHT22;59355;52.416;13.412;2022-07-03T04:27:52;16.60;99.90
2849;DHT22;59355;52.416;13.412;2022-07-03T04:30:19;16.70;99.90
2849;DHT22;59355;52.416;13.412;2022-07-03T04:32:45;16.70;99.90
2849;DHT22;59355;52.416;13.412;2022-07-03T04:35:11;16.80;99.90
2849;DHT22;59355;52.416;13.412;2022-07-03T04:37:37;16.80;99.90
2849;DHT22;59355;52.416;13.412;2022-07-03T04:40:04;16.90;99.90
2849;DHT22;59355;52.416;13.412;2022-07-03T04:42:30;16.90;99.90
2849;DHT22;59355;52.416;13.412;2022-07-03T04:44:56;17.00;99.90
2849;DHT22;59355;52.416;13.412;2022-07-03T04:47:22;17.00;99.90
2849;DHT22;59355;52.416;13.412;2022-07-03T04:49:48;17.10;99.90
2849;DHT22;59355;52.416;13.412;2022-07-03T04:52:14;17.20;99.90
2849;DHT22;59355;52.416;13.412;2022-07-03T04:54:40;17.20;99.90
2849;DHT22;59355;52.416;13.412;2022-07-03T04:57:07;17.30;99.90
2849;DHT22;59355;52.416;13.412;2022-07-03T04:59:33;17.40;99.90
2849;DHT22;59355;52.416;13.412;2022-07-03T05:01:59;17.50;99.90
2849;DHT22;59355;52.416;13.412;2022-07-03T05:04:25;17.50;99.90
2849;DHT22;59355;52.416;13.412;2022-07-03T05:06:52;17.60;99.90
2849;DHT22;59355;52.416;13.412;2022-07-03T05:09:18;17.70;99.90
2849;DHT22;59355;52.416;13.412;2022-07-03T05:11:45;17.80;99.90
2849;DHT22;59355;52.416;13.412;2022-07-03T05:14:11;17.80;99.90
2849;DHT22;59355;52.416;13.412;2022-07-03T05:16:37;18.00;99.90
2849;DHT22;59355;52.416;13.412;2022-07-03T05:19:03;18.10;99.90
2849;DHT22;59355;52.416;13.412;2022-07-03T05:21:29;18.20;99.90
2849;DHT22;59355;52.416;13.412;2022-07-03T05:23:55;18.30;99.90
2849;DHT22;59355;52.416;13.412;2022-07-03T05:26:21;18.30;99.90
2849;DHT22;59355;52.416;13.412;2022-07-03T05:28:47;18.40;99.90
2849;DHT22;59355;52.416;13.412;2022-07-03T05:31:13;18.50;99.90
2849;DHT22;59355;52.416;13.412;2022-07-03T05:33:39;18.60;99.90
2849;DHT22;59355;52.416;13.412;2022-07-03T05:36:06;18.60;99.90
2849;DHT22;59355;52.416;13.412;2022-07-03T05:38:32;18.70;99.90
2849;DHT22;59355;52.416;13.412;2022-07-03T05:41:17;18.70;99.90
2849;DHT22;59355;52.416;13.412;2022-07-03T05:43:43;18.90;99.90
2849;DHT22;59355;52.416;13.412;2022-07-03T05:46:10;18.90;99.90
2849;DHT22;59355;52.416;13.412;2022-07-03T05:48:36;18.90;99.90
2849;DHT22;59355;52.416;13.412;2022-07-03T05:51:02;19.10;99.90
2849;DHT22;59355;52.416;13.412;2022-07-03T05:53:29;19.10;99.90
2849;DHT22;59355;52.416;13.412;2022-07-03T05:55:55;19.20;99.90
2849;DHT22;59355;52.416;13.412;2022-07-03T05:58:21;19.30;99.90
2849;DHT22;59355;52.416;13.412;2022-07-03T06:00:47;19.40;99.90
2849;DHT22;59355;52.416;13.412;2022-07-03T06:03:13;19.50;99.90
2849;DHT22;59355;52.416;13.412;2022-07-03T06:05:39;19.60;99.90
2849;DHT22;59355;52.416;13.412;2022-07-03T06:08:06;19.60;99.90
2849;DHT22;59355;52.416;13.412;2022-07-03T06:10:32;19.80;99.90
2849;DHT22;59355;52.416;13.412;2022-07-03T06:12:59;19.90;99.90
2849;DHT22;59355;52.416;13.412;2022-07-03T06:15:25;20.00;99.90
2849;DHT22;59355;52.416;13.412;2022-07-03T06:17:51;20.10;99.90
2849;DHT22;59355;52.416;13.412;2022-07-03T06:20:18;20.20;99.90
2849;DHT22;59355;52.416;13.412;2022-07-03T06:22:44;20.30;99.90
2849;DHT22;59355;52.416;13.412;2022-07-03T06:25:10;20.30;99.90
2849;DHT22;59355;52.416;13.412;2022-07-03T06:27:37;20.50;99.90
2849;DHT22;59355;52.416;13.412;2022-07-03T06:30:03;20.50;99.90
2849;DHT22;59355;52.416;13.412;2022-07-03T06:32:30;20.60;99.90
2849;DHT22;59355;52.416;13.412;2022-07-03T06:34:56;20.60;99.90
2849;DHT22;59355;52.416;13.412;2022-07-03T06:37:22;20.70;99.90
2849;DHT22;59355;52.416;13.412;2022-07-03T06:39:48;20.70;99.90
2849;DHT22;59355;52.416;13.412;2022-07-03T06:42:14;20.80;99.90
2849;DHT22;59355;52.416;13.412;2022-07-03T06:44:40;20.90;99.90
2849;DHT22;59355;52.416;13.412;2022-07-03T06:47:07;21.00;99.90
2849;DHT22;59355;52.416;13.412;2022-07-03T06:49:34;21.10;99.90
2849;DHT22;59355;52.416;13.412;2022-07-03T06:52:00;21.20;99.90
2849;DHT22;59355;52.416;13.412;2022-07-03T06:54:26;21.30;99.90
2849;DHT22;59355;52.416;13.412;2022-07-03T06:56:52;21.50;99.90
2849;DHT22;59355;52.416;13.412;2022-07-03T06:59:19;21.50;99.90
2849;DHT22;59355;52.416;13.412;2022-07-03T07:01:45;21.70;99.90
2849;DHT22;59355;52.416;13.412;2022-07-03T07:04:11;21.70;99.90
2849;DHT22;59355;52.416;13.412;2022-07-03T07:06:37;21.80;99.90
2849;DHT22;59355;52.416;13.412;2022-07-03T07:09:04;21.90;99.90
2849;DHT22;59355;52.416;13.412;2022-07-03T07:11:30;22.00;99.90
2849;DHT22;59355;52.416;13.412;2022-07-03T07:13:56;22.10;99.90
2849;DHT22;59355;52.416;13.412;2022-07-03T07:16:22;22.10;99.60
2849;DHT22;59355;52.416;13.412;2022-07-03T07:18:48;22.10;96.70
2849;DHT22;59355;52.416;13.412;2022-07-03T07:21:14;22.20;97.60
2849;DHT22;59355;52.416;13.412;2022-07-03T07:23:40;22.20;96.30
2849;DHT22;59355;52.416;13.412;2022-07-03T07:26:06;22.20;95.00
2849;DHT22;59355;52.416;13.412;2022-07-03T07:28:33;22.20;96.30
2849;DHT22;59355;52.416;13.412;2022-07-03T07:31:01;22.30;98.20
2849;DHT22;59355;52.416;13.412;2022-07-03T07:33:27;22.50;90.80
2849;DHT22;59355;52.416;13.412;2022-07-03T07:35:53;22.60;92.80
2849;DHT22;59355;52.416;13.412;2022-07-03T07:38:19;22.70;93.60
2849;DHT22;59355;52.416;13.412;2022-07-03T07:40:46;22.70;90.50
2849;DHT22;59355;52.416;13.412;2022-07-03T07:43:12;22.80;84.80
2849;DHT22;59355;52.416;13.412;2022-07-03T07:45:39;22.90;86.40
2849;DHT22;59355;52.416;13.412;2022-07-03T07:48:05;22.90;85.70
2849;DHT22;59355;52.416;13.412;2022-07-03T07:50:31;22.80;82.10
2849;DHT22;59355;52.416;13.412;2022-07-03T07:52:57;22.90;86.60
2849;DHT22;59355;52.416;13.412;2022-07-03T07:55:24;23.00;83.00
2849;DHT22;59355;52.416;13.412;2022-07-03T07:57:51;23.20;83.90
2849;DHT22;59355;52.416;13.412;2022-07-03T08:00:18;23.30;79.90
2849;DHT22;59355;52.416;13.412;2022-07-03T08:02:45;23.20;76.20
2849;DHT22;59355;52.416;13.412;2022-07-03T08:05:31;23.30;74.50
2849;DHT22;59355;52.416;13.412;2022-07-03T08:08:13;23.40;73.30
2849;DHT22;59355;52.416;13.412;2022-07-03T08:10:46;23.50;75.30
2849;DHT22;59355;52.416;13.412;2022-07-03T08:13:14;23.50;73.70
2849;DHT22;59355;52.416;13.412;2022-07-03T08:15:41;23.50;75.40
2849;DHT22;59355;52.416;13.412;2022-07-03T08:18:07;23.60;74.30
2849;DHT22;59355;52.416;13.412;2022-07-03T08:20:34;23.80;71.50
2849;DHT22;59355;52.416;13.412;2022-07-03T08:23:01;23.90;70.60
2849;DHT22;59355;52.416;13.412;2022-07-03T08:25:28;23.80;68.60
2849;DHT22;59355;52.416;13.412;2022-07-03T08:27:56;23.90;69.50
2849;DHT22;59355;52.416;13.412;2022-07-03T08:30:22;23.90;70.50
2849;DHT22;59355;52.416;13.412;2022-07-03T08:32:51;23.90;69.50
2849;DHT22;59355;52.416;13.412;2022-07-03T08:35:17;23.90;72.60
2849;DHT22;59355;52.416;13.412;2022-07-03T08:37:44;24.10;69.50
2849;DHT22;59355;52.416;13.412;2022-07-03T08:40:13;24.20;69.60
2849;DHT22;59355;52.416;13.412;2022-07-03T08:42:47;24.30;68.90
2849;DHT22;59355;52.416;13.412;2022-07-03T08:45:15;24.30;67.50
2849;DHT22;59355;52.416;13.412;2022-07-03T08:47:45;24.30;68.90
2849;DHT22;59355;52.416;13.412;2022-07-03T08:50:13;24.40;67.00
2849;DHT22;59355;52.416;13.412;2022-07-03T08:52:40;24.60;68.00
2849;DHT22;59355;52.416;13.412;2022-07-03T08:55:07;24.60;64.30
2849;DHT22;59355;52.416;13.412;2022-07-03T08:57:36;24.60;69.10
2849;DHT22;59355;52.416;13.412;2022-07-03T09:00:05;24.60;71.70
2849;DHT22;59355;52.416;13.412;2022-07-03T09:02:32;24.80;69.20
2849;DHT22;59355;52.416;13.412;2022-07-03T09:04:59;24.80;67.60
2849;DHT22;59355;52.416;13.412;2022-07-03T09:07:33;24.80;63.30
2849;DHT22;59355;52.416;13.412;2022-07-03T09:10:00;24.80;61.30
2849;DHT22;59355;52.416;13.412;2022-07-03T09:12:30;24.80;62.30
2849;DHT22;59355;52.416;13.412;2022-07-03T09:14:56;24.90;61.80
2849;DHT22;59355;52.416;13.412;2022-07-03T09:17:22;25.00;63.50
2849;DHT22;59355;52.416;13.412;2022-07-03T09:19:48;25.00;61.80
2849;DHT22;59355;52.416;13.412;2022-07-03T09:22:23;25.00;63.70
2849;DHT22;59355;52.416;13.412;2022-07-03T09:24:52;25.00;60.40
2849;DHT22;59355;52.416;13.412;2022-07-03T09:27:21;24.90;60.10
2849;DHT22;59355;52.416;13.412;2022-07-03T09:29:57;25.10;59.60
2849;DHT22;59355;52.416;13.412;2022-07-03T09:32:45;25.20;61.40
2849;DHT22;59355;52.416;13.412;2022-07-03T09:35:27;25.20;63.20
2849;DHT22;59355;52.416;13.412;2022-07-03T09:37:54;25.30;59.50
2849;DHT22;59355;52.416;13.412;2022-07-03T09:40:22;25.30;61.20
2849;DHT22;59355;52.416;13.412;2022-07-03T09:43:03;25.40;59.60
2849;DHT22;59355;52.416;13.412;2022-07-03T09:45:49;25.30;59.50
2849;DHT22;59355;52.416;13.412;2022-07-03T09:48:30;25.40;59.50
2849;DHT22;59355;52.416;13.412;2022-07-03T09:51:22;25.50;59.80
2849;DHT22;59355;52.416;13.412;2022-07-03T09:54:01;25.50;57.60
2849;DHT22;59355;52.416;13.412;2022-07-03T09:56:38;25.50;58.80
2849;DHT22;59355;52.416;13.412;2022-07-03T09:59:08;25.60;59.40
2849;DHT22;59355;52.416;13.412;2022-07-03T10:01:39;25.60;57.90
2849;DHT22;59355;52.416;13.412;2022-07-03T10:09:28;25.80;58.10
2849;DHT22;59355;52.416;13.412;2022-07-03T10:11:56;26.00;58.40
2849;DHT22;59355;52.416;13.412;2022-07-03T10:14:24;26.10;58.70
2849;DHT22;59355;52.416;13.412;2022-07-03T10:16:50;26.30;57.80
2849;DHT22;59355;52.416;13.412;2022-07-03T10:19:19;26.40;58.00
2849;DHT22;59355;52.416;13.412;2022-07-03T10:21:53;26.50;58.50
2849;DHT22;59355;52.416;13.412;2022-07-03T10:24:21;26.50;58.50
2849;DHT22;59355;52.416;13.412;2022-07-03T10:26:49;26.30;57.20
2849;DHT22;59355;52.416;13.412;2022-07-03T10:29:15;26.10;57.50
2849;DHT22;59355;52.416;13.412;2022-07-03T10:31:45;26.10;57.70
2849;DHT22;59355;52.416;13.412;2022-07-03T10:34:22;26.30;57.00
2849;DHT22;59355;52.416;13.412;2022-07-03T10:36:52;26.50;56.90
2849;DHT22;59355;52.416;13.412;2022-07-03T10:39:32;26.50;56.80
2849;DHT22;59355;52.416;13.412;2022-07-03T10:42:00;26.20;57.00
2849;DHT22;59355;52.416;13.412;2022-07-03T10:45:10;26.20;57.30
2849;DHT22;59355;52.416;13.412;2022-07-03T10:47:46;26.30;58.40
2849;DHT22;59355;52.416;13.412;2022-07-03T10:50:14;26.70;58.00
2849;DHT22;59355;52.416;13.412;2022-07-03T10:52:41;27.00;56.20
2849;DHT22;59355;52.416;13.412;2022-07-03T10:55:08;27.10;54.90
2849;DHT22;59355;52.416;13.412;2022-07-03T10:57:36;27.10;55.00
2849;DHT22;59355;52.416;13.412;2022-07-03T11:00:18;27.20;55.10
2849;DHT22;59355;52.416;13.412;2022-07-03T11:02:49;27.30;53.80
2849;DHT22;59355;52.416;13.412;2022-07-03T11:05:21;27.50;53.90
2849;DHT22;59355;52.416;13.412;2022-07-03T11:13:07;27.70;52.30
2849;DHT22;59355;52.416;13.412;2022-07-03T11:15:34;27.80;52.00
2849;DHT22;59355;52.416;13.412;2022-07-03T11:18:06;27.90;53.50
2849;DHT22;59355;52.416;13.412;2022-07-03T11:20:37;27.90;54.50
2849;DHT22;59355;52.416;13.412;2022-07-03T11:25:39;27.80;53.10
2849;DHT22;59355;52.416;13.412;2022-07-03T11:28:06;27.70;51.00
2849;DHT22;59355;52.416;13.412;2022-07-03T11:30:33;27.70;53.30
2849;DHT22;59355;52.416;13.412;2022-07-03T11:32:59;27.80;53.60
2849;DHT22;59355;52.416;13.412;2022-07-03T11:35:51;27.90;52.00
2849;DHT22;59355;52.416;13.412;2022-07-03T11:38:21;27.90;53.20
2849;DHT22;59355;52.416;13.412;2022-07-03T11:40:50;27.80;53.10
2849;DHT22;59355;52.416;13.412;2022-07-03T11:43:17;27.80;53.50
2849;DHT22;59355;52.416;13.412;2022-07-03T11:45:43;27.70;53.10
2849;DHT22;59355;52.416;13.412;2022-07-03T11:48:13;27.70;52.80
2849;DHT22;59355;52.416;13.412;2022-07-03T11:50:40;27.60;53.60
2849;DHT22;59355;52.416;13.412;2022-07-03T11:53:21;27.50;51.40
2849;DHT22;59355;52.416;13.412;2022-07-03T11:55:52;27.50;52.20
2849;DHT22;59355;52.416;13.412;2022-07-03T11:58:18;27.10;50.20
2849;DHT22;59355;52.416;13.412;2022-07-03T12:00:45;26.90;50.40
2849;DHT22;59355;52.416;13.412;2022-07-03T12:03:16;26.90;50.70
2849;DHT22;59355;52.416;13.412;2022-07-03T12:05:57;27.20;51.10
2849;DHT22;59355;52.416;13.412;2022-07-03T12:08:33;27.50;51.00
2849;DHT22;59355;52.416;13.412;2022-07-03T12:11:02;27.60;50.60
2849;DHT22;59355;52.416;13.412;2022-07-03T12:13:29;27.90;51.30
2849;DHT22;59355;52.416;13.412;2022-07-03T12:21:15;28.40;51.30
2849;DHT22;59355;52.416;13.412;2022-07-03T12:23:48;28.50;50.70
2849;DHT22;59355;52.416;13.412;2022-07-03T12:26:29;28.60;48.70
2849;DHT22;59355;52.416;13.412;2022-07-03T12:28:58;28.50;47.40
2849;DHT22;59355;52.416;13.412;2022-07-03T12:31:25;28.70;49.10
2849;DHT22;59355;52.416;13.412;2022-07-03T12:33:52;28.80;49.00
2849;DHT22;59355;52.416;13.412;2022-07-03T12:36:18;28.90;48.40
2849;DHT22;59355;52.416;13.412;2022-07-03T12:38:48;29.00;48.20
2849;DHT22;59355;52.416;13.412;2022-07-03T12:41:15;29.20;47.40
2849;DHT22;59355;52.416;13.412;2022-07-03T12:43:44;29.40;48.30
2849;DHT22;59355;52.416;13.412;2022-07-03T12:46:42;29.70;48.20
2849;DHT22;59355;52.416;13.412;2022-07-03T12:49:09;29.60;47.30
2849;DHT22;59355;52.416;13.412;2022-07-03T12:51:44;29.90;48.10
2849;DHT22;59355;52.416;13.412;2022-07-03T12:54:31;30.00;47.60
2849;DHT22;59355;52.416;13.412;2022-07-03T12:57:08;29.80;47.10
2849;DHT22;59355;52.416;13.412;2022-07-03T13:00:13;29.60;47.20
2849;DHT22;59355;52.416;13.412;2022-07-03T13:02:44;29.60;46.20
2849;DHT22;59355;52.416;13.412;2022-07-03T13:05:21;30.00;47.70
2849;DHT22;59355;52.416;13.412;2022-07-03T13:07:50;29.90;46.00
2849;DHT22;59355;52.416;13.412;2022-07-03T13:10:19;29.70;45.90
2849;DHT22;59355;52.416;13.412;2022-07-03T13:12:50;29.50;45.80
2849;DHT22;59355;52.416;13.412;2022-07-03T13:15:16;29.90;48.00
2849;DHT22;59355;52.416;13.412;2022-07-03T13:17:50;30.30;46.20
2849;DHT22;59355;52.416;13.412;2022-07-03T13:20:16;30.50;44.80
2849;DHT22;59355;52.416;13.412;2022-07-03T13:22:42;30.70;44.70
2849;DHT22;59355;52.416;13.412;2022-07-03T13:25:08;30.70;43.50
2849;DHT22;59355;52.416;13.412;2022-07-03T13:27:35;30.80;45.00
2849;DHT22;59355;52.416;13.412;2022-07-03T13:30:01;31.00;43.30
2849;DHT22;59355;52.416;13.412;2022-07-03T13:32:27;30.90;43.00
2849;DHT22;59355;52.416;13.412;2022-07-03T13:34:53;30.50;42.80
2849;DHT22;59355;52.416;13.412;2022-07-03T13:37:19;30.80;43.50
2849;DHT22;59355;52.416;13.412;2022-07-03T13:39:45;31.00;43.40
2849;DHT22;59355;52.416;13.412;2022-07-03T13:42:11;31.20;43.80
2849;DHT22;59355;52.416;13.412;2022-07-03T13:44:37;31.30;43.60
2849;DHT22;59355;52.416;13.412;2022-07-03T13:47:04;31.60;42.80
2849;DHT22;59355;52.416;13.412;2022-07-03T13:49:33;31.70;43.00
2849;DHT22;59355;52.416;13.412;2022-07-03T13:51:59;31.50;42.80
2849;DHT22;59355;52.416;13.412;2022-07-03T13:54:25;31.80;42.90
2849;DHT22;59355;52.416;13.412;2022-07-03T13:56:51;31.90;41.40
2849;DHT22;59355;52.416;13.412;2022-07-03T13:59:18;31.50;42.90
2849;DHT22;59355;52.416;13.412;2022-07-03T14:01:44;31.60;43.00
2849;DHT22;59355;52.416;13.412;2022-07-03T14:04:11;31.70;42.20
2849;DHT22;59355;52.416;13.412;2022-07-03T14:06:37;31.60;42.20
2849;DHT22;59355;52.416;13.412;2022-07-03T14:09:03;31.50;41.50
2849;DHT22;59355;52.416;13.412;2022-07-03T14:11:29;31.80;41.60
2849;DHT22;59355;52.416;13.412;2022-07-03T14:13:55;32.40;41.70
2849;DHT22;59355;52.416;13.412;2022-07-03T14:16:21;32.80;40.90
2849;DHT22;59355;52.416;13.412;2022-07-03T14:18:48;33.70;39.50
2849;DHT22;59355;52.416;13.412;2022-07-03T14:21:14;33.60;39.10
2849;DHT22;59355;52.416;13.412;2022-07-03T14:23:40;33.40;39.10
2849;DHT22;59355;52.416;13.412;2022-07-03T14:26:06;35.10;38.10
2849;DHT22;59355;52.416;13.412;2022-07-03T14:28:32;35.30;38.80
2849;DHT22;59355;52.416;13.412;2022-07-03T14:31:17;35.70;35.80
2849;DHT22;59355;52.416;13.412;2022-07-03T14:33:50;35.40;36.90
2849;DHT22;59355;52.416;13.412;2022-07-03T14:36:17;35.00;37.20
2849;DHT22;59355;52.416;13.412;2022-07-03T14:38:43;35.20;38.10
2849;DHT22;59355;52.416;13.412;2022-07-03T14:41:10;35.80;37.90
2849;DHT22;59355;52.416;13.412;2022-07-03T14:43:36;36.10;36.80
2849;DHT22;59355;52.416;13.412;2022-07-03T14:46:02;36.90;36.00
2849;DHT22;59355;52.416;13.412;2022-07-03T14:48:28;37.30;35.00
2849;DHT22;59355;52.416;13.412;2022-07-03T14:50:54;37.30;34.40
2849;DHT22;59355;52.416;13.412;2022-07-03T14:53:21;37.50;34.60
2849;DHT22;59355;52.416;13.412;2022-07-03T14:55:49;37.60;35.60
2849;DHT22;59355;52.416;13.412;2022-07-03T14:58:17;38.00;34.50
2849;DHT22;59355;52.416;13.412;2022-07-03T15:00:56;37.00;35.30
2849;DHT22;59355;52.416;13.412;2022-07-03T15:03:31;36.00;34.00
2849;DHT22;59355;52.416;13.412;2022-07-03T15:06:07;35.40;36.60
2849;DHT22;59355;52.416;13.412;2022-07-03T15:11:05;37.80;35.10
2849;DHT22;59355;52.416;13.412;2022-07-03T15:13:34;38.10;33.80
2849;DHT22;59355;52.416;13.412;2022-07-03T15:16:00;36.90;34.00
2849;DHT22;59355;52.416;13.412;2022-07-03T15:18:28;36.10;36.10
2849;DHT22;59355;52.416;13.412;2022-07-03T15:20:54;37.20;35.30
2849;DHT22;59355;52.416;13.412;2022-07-03T15:23:23;38.20;34.30
2849;DHT22;59355;52.416;13.412;2022-07-03T15:25:49;38.10;34.00
2849;DHT22;59355;52.416;13.412;2022-07-03T15:28:16;38.00;34.70
2849;DHT22;59355;52.416;13.412;2022-07-03T15:30:48;38.30;33.00
2849;DHT22;59355;52.416;13.412;2022-07-03T15:33:15;38.40;33.60
2849;DHT22;59355;52.416;13.412;2022-07-03T15:35:49;39.10;34.20
2849;DHT22;59355;52.416;13.412;2022-07-03T15:38:20;38.40;33.30
2849;DHT22;59355;52.416;13.412;2022-07-03T15:40:55;37.10;34.40
2849;DHT22;59355;52.416;13.412;2022-07-03T15:49:28;35.20;35.60
2849;DHT22;59355;52.416;13.412;2022-07-03T15:51:57;35.30;35.90
2849;DHT22;59355;52.416;13.412;2022-07-03T15:54:40;34.70;36.10
2849;DHT22;59355;52.416;13.412;2022-07-03T15:57:19;33.70;37.30
2849;DHT22;59355;52.416;13.412;2022-07-03T15:59:51;33.30;37.70
2849;DHT22;59355;52.416;13.412;2022-07-03T16:02:35;32.70;38.70
2849;DHT22;59355;52.416;13.412;2022-07-03T16:05:16;34.40;38.50
2849;DHT22;59355;52.416;13.412;2022-07-03T16:07:43;35.40;36.80
2849;DHT22;59355;52.416;13.412;2022-07-03T16:10:11;34.70;35.60
2849;DHT22;59355;52.416;13.412;2022-07-03T16:12:38;33.80;37.50
2849;DHT22;59355;52.416;13.412;2022-07-03T16:15:08;32.80;38.30
2849;DHT22;59355;52.416;13.412;2022-07-03T16:17:34;34.00;38.10
2849;DHT22;59355;52.416;13.412;2022-07-03T16:20:03;36.00;36.10
2849;DHT22;59355;52.416;13.412;2022-07-03T16:22:33;36.40;34.90
2849;DHT22;59355;52.416;13.412;2022-07-03T16:25:01;36.70;34.80
2849;DHT22;59355;52.416;13.412;2022-07-03T16:27:27;36.40;34.90